Artemis — SWZE — position and weather

sailwx.info

Track history (hours):
 
Tides and Currents Weather Stations Pressure Air Temp Water Temp Dewpoint Dewpoint Depression Visibility Wind Speed Wind Dir Waves Ship Positions

Artemis

Last reported at 2017-Jan-17 17:24 UTC. Time now 2017-Jan-20 05:53 UTC.
Position N 40°13' E 024°46'.

Length 89 m; draft 3.4 m.

Type: Ship. MMSI: 237026300.

Date/timePositionNaut miles runAvg speedWind from/ knotsBaromVisibWave heightAir tempDewpointWater temp
2017-Jan-17 17:24N 40°13' E 024°46'1213.6
2017-Jan-17 16:33N 40°24' E 024°39'1414.4
2017-Jan-17 15:33N 40°36' E 024°30'1414.4
2017-Jan-17 14:33N 40°50' E 024°26'6 5.3
2017-Jan-17 13:28N 40°56' E 024°25'0 0.0
2017-Jan-17 12:33N 40°56' E 024°25'1212.5
2017-Jan-17 11:33N 40°44' E 024°28'1313.4
2017-Jan-17 10:33N 40°31' E 024°32'1414.0
2017-Jan-17 09:33N 40°25' E 024°49'1413.7
2017-Jan-17 08:33N 40°12' E 024°53'8 0.2
2017-Jan-15 18:07N 40°03' E 024°54'1314.3
2017-Jan-15 17:13N 40°15' E 024°45'1014.6
2017-Jan-15 16:33N 40°23' E 024°39'1414.4
2017-Jan-15 15:33N 40°36' E 024°30'1414.4
2017-Jan-15 14:33N 40°50' E 024°26'6 6.2
2017-Jan-15 13:32N 40°56' E 024°25'0 0.1
2017-Jan-15 12:24N 40°56' E 024°25'0 0.0
2017-Jan-15 11:31N 40°56' E 024°25'0 0.0
2017-Jan-15 10:33N 40°56' E 024°25'0 0.0
2017-Jan-15 09:33N 40°56' E 024°25'0 0.0
2017-Jan-15 05:13N 40°56' E 024°25'0 0.0
2017-Jan-15 04:33N 40°56' E 024°25'0 0.0
2017-Jan-15 03:33N 40°56' E 024°25'0 0.0
2017-Jan-14 23:27N 40°56' E 024°25'0 0.0
2017-Jan-14 22:33N 40°56' E 024°25'0 0.0
2017-Jan-14 21:33N 40°56' E 024°25'0 0.0
2017-Jan-14 20:31N 40°56' E 024°25'0 0.0
2017-Jan-14 19:33N 40°56' E 024°25'0 0.0
2017-Jan-14 18:33N 40°56' E 024°25'0 0.0
2017-Jan-14 17:32N 40°56' E 024°25'0 0.0
2017-Jan-14 16:33N 40°56' E 024°25'0 0.0
2017-Jan-14 15:33N 40°56' E 024°25'0 0.0
2017-Jan-14 14:33N 40°56' E 024°25'0 0.0
2017-Jan-14 13:28N 40°56' E 024°25'0 0.0
2017-Jan-14 12:30N 40°56' E 024°25'0 0.0
2017-Jan-14 11:33N 40°56' E 024°25'0 0.0
2017-Jan-14 10:33N 40°56' E 024°25'1 1.3
2017-Jan-14 09:33N 40°55' E 024°25'1413.9
2017-Jan-14 08:33N 40°41' E 024°28'1413.7
2017-Jan-14 07:33N 40°29' E 024°38'1414.0
2017-Jan-14 06:33N 40°19' E 024°50'151 8.9
2017-Jan-13 13:30N 37°50' E 024°17'15612.0
2017-Jan-13 00:30N 40°25' E 024°38'1314.3
2017-Jan-12 23:33N 40°37' E 024°30'1414.5
2017-Jan-12 22:34N 40°51' E 024°26'5 5.1
2017-Jan-12 21:32N 40°56' E 024°25'1 0.6
2017-Jan-12 20:34N 40°56' E 024°24'1414.3
2017-Jan-12 19:33N 40°41' E 024°28'1414.2
2017-Jan-12 18:33N 40°29' E 024°36'1614.6
2017-Jan-12 17:30N 40°15' E 024°45'3 0.1
2017-Jan-11 01:30N 40°12' E 024°48'1414.2
2017-Jan-11 00:32N 40°24' E 024°39'1414.5
2017-Jan-10 23:33N 40°36' E 024°30'1414.4
2017-Jan-10 22:33N 40°50' E 024°26'5 4.6
2017-Jan-10 21:33N 40°55' E 024°24'1514.2
2017-Jan-10 20:32N 40°41' E 024°28'1412.6
2017-Jan-10 19:27N 40°31' E 024°41'1212.3
2017-Jan-10 18:28N 40°21' E 024°50'6 0.2
2017-Jan-09 00:32N 40°19' E 024°42'1514.1
2017-Jan-08 23:29N 40°32' E 024°33'1414.6
2017-Jan-08 22:33N 40°45' E 024°28'1111.4
2017-Jan-08 21:33N 40°56' E 024°25'8 7.6
2017-Jan-08 20:33N 40°48' E 024°26'1514.4
2017-Jan-08 19:32N 40°34' E 024°30'1614.4
2017-Jan-08 18:24N 40°20' E 024°41'1714.7
2017-Jan-08 17:13N 40°05' E 024°53'  
Track history (hours):
 
Tides and Currents Weather Stations Pressure Air Temp Water Temp Dewpoint Dewpoint Depression Visibility Wind Speed Wind Dir Waves Ship Positions

Artemis

Last reported at 2017-Jan-17 17:24 UTC. Time now 2017-Jan-20 05:53 UTC.
Position N 40°13' E 024°46'.

Length 89 m; draft 3.4 m.

Type: Ship. MMSI: 237026300.

Date/timePositionNaut miles runAvg speedWind from/ knotsBaromVisibWave heightAir tempDewpointWater temp
2017-Jan-17 17:24N 40°13' E 024°46'1213.6
2017-Jan-17 16:33N 40°24' E 024°39'1414.4
2017-Jan-17 15:33N 40°36' E 024°30'1414.4
2017-Jan-17 14:33N 40°50' E 024°26'6 5.3
2017-Jan-17 13:28N 40°56' E 024°25'0 0.0
2017-Jan-17 12:33N 40°56' E 024°25'1212.5
2017-Jan-17 11:33N 40°44' E 024°28'1313.4
2017-Jan-17 10:33N 40°31' E 024°32'1414.0
2017-Jan-17 09:33N 40°25' E 024°49'1413.7
2017-Jan-17 08:33N 40°12' E 024°53'8 0.2
2017-Jan-15 18:07N 40°03' E 024°54'1314.3
2017-Jan-15 17:13N 40°15' E 024°45'1014.6
2017-Jan-15 16:33N 40°23' E 024°39'1414.4
2017-Jan-15 15:33N 40°36' E 024°30'1414.4
2017-Jan-15 14:33N 40°50' E 024°26'6 6.2
2017-Jan-15 13:32N 40°56' E 024°25'0 0.1
2017-Jan-15 12:24N 40°56' E 024°25'0 0.0
2017-Jan-15 11:31N 40°56' E 024°25'0 0.0
2017-Jan-15 10:33N 40°56' E 024°25'0 0.0
2017-Jan-15 09:33N 40°56' E 024°25'0 0.0
2017-Jan-15 05:13N 40°56' E 024°25'0 0.0
2017-Jan-15 04:33N 40°56' E 024°25'0 0.0
2017-Jan-15 03:33N 40°56' E 024°25'0 0.0
2017-Jan-14 23:27N 40°56' E 024°25'0 0.0
2017-Jan-14 22:33N 40°56' E 024°25'0 0.0
2017-Jan-14 21:33N 40°56' E 024°25'0 0.0
2017-Jan-14 20:31N 40°56' E 024°25'0 0.0
2017-Jan-14 19:33N 40°56' E 024°25'0 0.0
2017-Jan-14 18:33N 40°56' E 024°25'0 0.0
2017-Jan-14 17:32N 40°56' E 024°25'0 0.0
2017-Jan-14 16:33N 40°56' E 024°25'0 0.0
2017-Jan-14 15:33N 40°56' E 024°25'0 0.0
2017-Jan-14 14:33N 40°56' E 024°25'0 0.0
2017-Jan-14 13:28N 40°56' E 024°25'0 0.0
2017-Jan-14 12:30N 40°56' E 024°25'0 0.0
2017-Jan-14 11:33N 40°56' E 024°25'0 0.0
2017-Jan-14 10:33N 40°56' E 024°25'1 1.3
2017-Jan-14 09:33N 40°55' E 024°25'1413.9
2017-Jan-14 08:33N 40°41' E 024°28'1413.7
2017-Jan-14 07:33N 40°29' E 024°38'1414.0
2017-Jan-14 06:33N 40°19' E 024°50'151 8.9
2017-Jan-13 13:30N 37°50' E 024°17'15612.0
2017-Jan-13 00:30N 40°25' E 024°38'1314.3
2017-Jan-12 23:33N 40°37' E 024°30'1414.5
2017-Jan-12 22:34N 40°51' E 024°26'5 5.1
2017-Jan-12 21:32N 40°56' E 024°25'1 0.6
2017-Jan-12 20:34N 40°56' E 024°24'1414.3
2017-Jan-12 19:33N 40°41' E 024°28'1414.2
2017-Jan-12 18:33N 40°29' E 024°36'1614.6
2017-Jan-12 17:30N 40°15' E 024°45'3 0.1
2017-Jan-11 01:30N 40°12' E 024°48'1414.2
2017-Jan-11 00:32N 40°24' E 024°39'1414.5
2017-Jan-10 23:33N 40°36' E 024°30'1414.4
2017-Jan-10 22:33N 40°50' E 024°26'5 4.6
2017-Jan-10 21:33N 40°55' E 024°24'1514.2
2017-Jan-10 20:32N 40°41' E 024°28'1412.6
2017-Jan-10 19:27N 40°31' E 024°41'1212.3
2017-Jan-10 18:28N 40°21' E 024°50'6 0.2
2017-Jan-09 00:32N 40°19' E 024°42'1514.1
2017-Jan-08 23:29N 40°32' E 024°33'1414.6
2017-Jan-08 22:33N 40°45' E 024°28'1111.4
2017-Jan-08 21:33N 40°56' E 024°25'8 7.6
2017-Jan-08 20:33N 40°48' E 024°26'1514.4
2017-Jan-08 19:32N 40°34' E 024°30'1614.4
2017-Jan-08 18:24N 40°20' E 024°41'1714.7
2017-Jan-08 17:13N 40°05' E 024°53'  

Dump ship's entire track history